<?xml version='1.0' encoding='UTF-8'?><gpx version="1.1" creator="JPX - https://github.com/jenetics/jpx" xmlns="http://www.topografix.com/GPX/1/1"><trk><trkseg><trkpt lat="38.97988894701626" lon="8.61763380937198"><ele>10.0</ele><time>2026-04-19T15:44:52Z</time></trkpt><trkpt lat="38.979935533963854" lon="8.617691750190753"><ele>10.0</ele><time>2026-04-19T15:44:58Z</time></trkpt><trkpt lat="38.97998414626175" lon="8.617753745832617"><ele>10.0</ele><time>2026-04-19T15:45:04Z</time></trkpt><trkpt lat="38.98004222461136" lon="8.617787964454262"><ele>10.0</ele><time>2026-04-19T15:45:09Z</time></trkpt><trkpt lat="38.980113995836604" lon="8.617815723945641"><ele>10.0</ele><time>2026-04-19T15:45:15Z</time></trkpt><trkpt lat="38.98016600278576" lon="8.617869551472406"><ele>10.0</ele><time>2026-04-19T15:45:21Z</time></trkpt><trkpt lat="38.98017409459133" lon="8.617962823321303"><ele>10.0</ele><time>2026-04-19T15:45:27Z</time></trkpt><trkpt lat="38.98021641083977" lon="8.618036610036052"><ele>10.285714285714285</ele><time>2026-04-19T15:45:33Z</time></trkpt><trkpt lat="38.9802657093562" lon="8.618103886908417"><ele>10.571428571428571</ele><time>2026-04-19T15:45:39Z</time></trkpt><trkpt lat="38.98032184807647" lon="8.618167201197593"><ele>10.857142857142858</ele><time>2026-04-19T15:45:45Z</time></trkpt><trkpt lat="38.98036752844161" lon="8.618223548511391"><ele>11.142857142857142</ele><time>2026-04-19T15:45:50Z</time></trkpt><trkpt lat="38.98042125615394" lon="8.618287142826443"><ele>11.428571428571429</ele><time>2026-04-19T15:45:56Z</time></trkpt><trkpt lat="38.98046837400134" lon="8.618344109169625"><ele>11.714285714285714</ele><time>2026-04-19T15:46:01Z</time></trkpt><trkpt lat="38.98051808475349" lon="8.61841052091225"><ele>12.0</ele><time>2026-04-19T15:46:07Z</time></trkpt><trkpt lat="38.980574511779714" lon="8.618470372144614"><ele>11.999999999999998</ele><time>2026-04-19T15:46:13Z</time></trkpt><trkpt lat="38.98062463143364" lon="8.618520843019239"><ele>12.0</ele><time>2026-04-19T15:46:18Z</time></trkpt><trkpt lat="38.9806797933456" lon="8.618585436999988"><ele>12.0</ele><time>2026-04-19T15:46:24Z</time></trkpt><trkpt lat="38.98073265423673" lon="8.618650954360337"><ele>12.0</ele><time>2026-04-19T15:46:30Z</time></trkpt><trkpt lat="38.980771642890176" lon="8.618716796452281"><ele>12.0</ele><time>2026-04-19T15:46:36Z</time></trkpt><trkpt lat="38.98081928000938" lon="8.618790579633329"><ele>11.999999999999998</ele><time>2026-04-19T15:46:42Z</time></trkpt><trkpt lat="38.98087234480585" lon="8.618853141321791"><ele>12.0</ele><time>2026-04-19T15:46:48Z</time></trkpt><trkpt lat="38.980922961005355" lon="8.618909384576233"><ele>12.142857142857142</ele><time>2026-04-19T15:46:53Z</time></trkpt><trkpt lat="38.980970903664726" lon="8.618978039930642"><ele>12.285714285714285</ele><time>2026-04-19T15:46:59Z</time></trkpt><trkpt lat="38.98102562832789" lon="8.61904593659798"><ele>12.428571428571427</ele><time>2026-04-19T15:47:05Z</time></trkpt><trkpt lat="38.98106863205341" lon="8.619124105958935"><ele>12.571428571428571</ele><time>2026-04-19T15:47:11Z</time></trkpt><trkpt lat="38.98112721610372" lon="8.619181623293782"><ele>12.714285714285715</ele><time>2026-04-19T15:47:17Z</time></trkpt><trkpt lat="38.98118053629376" lon="8.619230810673367"><ele>12.857142857142856</ele><time>2026-04-19T15:47:22Z</time></trkpt><trkpt lat="38.98122702368286" lon="8.619286817941862"><ele>13.0</ele><time>2026-04-19T15:47:27Z</time></trkpt><trkpt lat="38.98128375138753" lon="8.619346580846543"><ele>13.0</ele><time>2026-04-19T15:47:33Z</time></trkpt><trkpt lat="38.981326608751644" lon="8.619411111825087"><ele>13.0</ele><time>2026-04-19T15:47:38Z</time></trkpt><trkpt lat="38.98138787701632" lon="8.619465065036282"><ele>13.0</ele><time>2026-04-19T15:47:44Z</time></trkpt><trkpt lat="38.981422535056794" lon="8.619532710912578"><ele>13.0</ele><time>2026-04-19T15:47:49Z</time></trkpt><trkpt lat="38.98147317415546" lon="8.619606675388043"><ele>13.0</ele><time>2026-04-19T15:47:55Z</time></trkpt><trkpt lat="38.981525385355425" lon="8.619657773703091"><ele>13.0</ele><time>2026-04-19T15:48:00Z</time></trkpt><trkpt lat="38.9815782712653" lon="8.619711198202195"><ele>13.0</ele><time>2026-04-19T15:48:05Z</time></trkpt><trkpt lat="38.98162501876176" lon="8.619779814966497"><ele>13.285714285714285</ele><time>2026-04-19T15:48:11Z</time></trkpt><trkpt lat="38.98165762679757" lon="8.619852494970948"><ele>13.571428571428573</ele><time>2026-04-19T15:48:16Z</time></trkpt><trkpt lat="38.981717459146275" lon="8.61990643737496"><ele>13.857142857142858</ele><time>2026-04-19T15:48:22Z</time></trkpt><trkpt lat="38.98176532511917" lon="8.619987616789702"><ele>14.142857142857142</ele><time>2026-04-19T15:48:28Z</time></trkpt><trkpt lat="38.981824505897514" lon="8.62001712216746"><ele>14.428571428571427</ele><time>2026-04-19T15:48:33Z</time></trkpt><trkpt lat="38.98188142033688" lon="8.620066928128875"><ele>14.714285714285715</ele><time>2026-04-19T15:48:39Z</time></trkpt><trkpt lat="38.98193990458236" lon="8.620120379051972"><ele>15.0</ele><time>2026-04-19T15:48:45Z</time></trkpt><trkpt lat="38.98199269079737" lon="8.620177665438804"><ele>15.0</ele><time>2026-04-19T15:48:51Z</time></trkpt><trkpt lat="38.98204090916379" lon="8.620232130160195"><ele>15.0</ele><time>2026-04-19T15:48:56Z</time></trkpt><trkpt lat="38.982090926068494" lon="8.620292169361894"><ele>15.0</ele><time>2026-04-19T15:49:02Z</time></trkpt><trkpt lat="38.98214262812195" lon="8.620354949202229"><ele>15.0</ele><time>2026-04-19T15:49:08Z</time></trkpt><trkpt lat="38.98218319966677" lon="8.62043944459764"><ele>15.0</ele><time>2026-04-19T15:49:14Z</time></trkpt><trkpt lat="38.98223621074189" lon="8.620499360610859"><ele>15.0</ele><time>2026-04-19T15:49:20Z</time></trkpt><trkpt lat="38.9822914495706" lon="8.62055839448146"><ele>15.0</ele><time>2026-04-19T15:49:26Z</time></trkpt><trkpt lat="38.982344433673525" lon="8.620621455543342"><ele>15.285714285714286</ele><time>2026-04-19T15:49:32Z</time></trkpt><trkpt lat="38.982396567287736" lon="8.620682034700572"><ele>15.57142857142857</ele><time>2026-04-19T15:49:37Z</time></trkpt><trkpt lat="38.98244791417886" lon="8.620743372754347"><ele>15.857142857142856</ele><time>2026-04-19T15:49:43Z</time></trkpt><trkpt lat="38.98249670827504" lon="8.620806820299334"><ele>16.142857142857142</ele><time>2026-04-19T15:49:49Z</time></trkpt><trkpt lat="38.982553311431786" lon="8.620868866144704"><ele>16.428571428571427</ele><time>2026-04-19T15:49:55Z</time></trkpt><trkpt lat="38.98260280945308" lon="8.620936021530703"><ele>16.71428571428571</ele><time>2026-04-19T15:50:01Z</time></trkpt><trkpt lat="38.98265347410129" lon="8.620994214515765"><ele>17.0</ele><time>2026-04-19T15:50:07Z</time></trkpt><trkpt lat="38.9827013177791" lon="8.621050109211648"><ele>17.142857142857142</ele><time>2026-04-19T15:50:12Z</time></trkpt><trkpt lat="38.98274900644011" lon="8.621111578470348"><ele>17.285714285714285</ele><time>2026-04-19T15:50:18Z</time></trkpt><trkpt lat="38.98279851646598" lon="8.621181922500096"><ele>17.42857142857143</ele><time>2026-04-19T15:50:24Z</time></trkpt><trkpt lat="38.98284957686691" lon="8.621238298178998"><ele>17.57142857142857</ele><time>2026-04-19T15:50:30Z</time></trkpt><trkpt lat="38.98289447520504" lon="8.62130402260086"><ele>17.714285714285715</ele><time>2026-04-19T15:50:36Z</time></trkpt><trkpt lat="38.98295114557566" lon="8.621365144122143"><ele>17.857142857142858</ele><time>2026-04-19T15:50:42Z</time></trkpt><trkpt lat="38.9830004283357" lon="8.621419854976786"><ele>18.0</ele><time>2026-04-19T15:50:47Z</time></trkpt><trkpt lat="38.9830495322575" lon="8.621491672629512"><ele>18.000000000000004</ele><time>2026-04-19T15:50:53Z</time></trkpt><trkpt lat="38.98309358779565" lon="8.621550623828375"><ele>18.0</ele><time>2026-04-19T15:50:58Z</time></trkpt><trkpt lat="38.983143800365525" lon="8.621618708635348"><ele>18.0</ele><time>2026-04-19T15:51:04Z</time></trkpt><trkpt lat="38.983188025765095" lon="8.621676723150964"><ele>18.0</ele><time>2026-04-19T15:51:09Z</time></trkpt><trkpt lat="38.98324710948605" lon="8.621737044167425"><ele>18.0</ele><time>2026-04-19T15:51:15Z</time></trkpt><trkpt lat="38.983289132832184" lon="8.621800530243448"><ele>18.000000000000004</ele><time>2026-04-19T15:51:20Z</time></trkpt><trkpt lat="38.98334470287026" lon="8.621862683887041"><ele>18.0</ele><time>2026-04-19T15:51:26Z</time></trkpt><trkpt lat="38.98339835718105" lon="8.621926315553278"><ele>18.28571428571429</ele><time>2026-04-19T15:51:32Z</time></trkpt><trkpt lat="38.983452158652696" lon="8.62197525172593"><ele>18.571428571428573</ele><time>2026-04-19T15:51:37Z</time></trkpt><trkpt lat="38.98350678276457" lon="8.622037786767985"><ele>18.857142857142858</ele><time>2026-04-19T15:51:43Z</time></trkpt><trkpt lat="38.98355766582443" lon="8.622090342826928"><ele>19.142857142857146</ele><time>2026-04-19T15:51:48Z</time></trkpt><trkpt lat="38.98360968085554" lon="8.622158231038556"><ele>19.42857142857143</ele><time>2026-04-19T15:51:54Z</time></trkpt><trkpt lat="38.98365677984903" lon="8.622226444162827"><ele>19.714285714285715</ele><time>2026-04-19T15:52:00Z</time></trkpt><trkpt lat="38.98369060386834" lon="8.622297722814771"><ele>20.0</ele><time>2026-04-19T15:52:05Z</time></trkpt><trkpt lat="38.983740809856336" lon="8.622348881396176"><ele>20.0</ele><time>2026-04-19T15:52:10Z</time></trkpt><trkpt lat="38.983795209510745" lon="8.622416374300895"><ele>20.0</ele><time>2026-04-19T15:52:16Z</time></trkpt><trkpt lat="38.98384359237131" lon="8.622490535862235"><ele>20.0</ele><time>2026-04-19T15:52:22Z</time></trkpt><trkpt lat="38.983898557779405" lon="8.622557919320816"><ele>20.0</ele><time>2026-04-19T15:52:28Z</time></trkpt><trkpt lat="38.98394571099677" lon="8.622620393563992"><ele>20.0</ele><time>2026-04-19T15:52:33Z</time></trkpt><trkpt lat="38.98399909092216" lon="8.622685742232628"><ele>20.0</ele><time>2026-04-19T15:52:39Z</time></trkpt><trkpt lat="38.98404062679093" lon="8.622751017959803"><ele>20.0</ele><time>2026-04-19T15:52:44Z</time></trkpt><trkpt lat="38.9840904227426" lon="8.622803171502225"><ele>20.0</ele><time>2026-04-19T15:52:49Z</time></trkpt><trkpt lat="38.984131116227786" lon="8.622875586422932"><ele>20.0</ele><time>2026-04-19T15:52:58Z</time></trkpt><trkpt lat="38.98419139991296" lon="8.622919559226835"><ele>20.0</ele><time>2026-04-19T15:53:03Z</time></trkpt><trkpt lat="38.984250279650475" lon="8.622981391664977"><ele>20.0</ele><time>2026-04-19T15:53:09Z</time></trkpt><trkpt lat="38.98429607603498" lon="8.62304332814303"><ele>20.0</ele><time>2026-04-19T15:53:14Z</time></trkpt><trkpt lat="38.98435259772461" lon="8.623100105130336"><ele>20.0</ele><time>2026-04-19T15:53:20Z</time></trkpt><trkpt lat="38.98440110994737" lon="8.623156032765985"><ele>20.0</ele><time>2026-04-19T15:53:25Z</time></trkpt><trkpt lat="38.98445903096522" lon="8.623213462887673"><ele>20.142857142857142</ele><time>2026-04-19T15:53:31Z</time></trkpt><trkpt lat="38.984515640915625" lon="8.623273069939472"><ele>20.285714285714285</ele><time>2026-04-19T15:53:37Z</time></trkpt><trkpt lat="38.98456369710916" lon="8.62333788914122"><ele>20.42857142857143</ele><time>2026-04-19T15:53:43Z</time></trkpt><trkpt lat="38.984610710319174" lon="8.623408510164499"><ele>20.57142857142857</ele><time>2026-04-19T15:53:49Z</time></trkpt><trkpt lat="38.9846593137376" lon="8.623477970584474"><ele>20.714285714285715</ele><time>2026-04-19T15:53:55Z</time></trkpt><trkpt lat="38.98470339814682" lon="8.623545086581752"><ele>20.857142857142858</ele><time>2026-04-19T15:54:00Z</time></trkpt><trkpt lat="38.98474954098435" lon="8.623618894309041"><ele>21.0</ele><time>2026-04-19T15:54:06Z</time></trkpt><trkpt lat="38.98480190306037" lon="8.62368330550528"><ele>21.0</ele><time>2026-04-19T15:54:12Z</time></trkpt><trkpt lat="38.98484640092417" lon="8.623741957528273"><ele>21.0</ele><time>2026-04-19T15:54:17Z</time></trkpt><trkpt lat="38.984896077252515" lon="8.623793458275584"><ele>21.0</ele><time>2026-04-19T15:54:22Z</time></trkpt><trkpt lat="38.98494570057098" lon="8.623858857202697"><ele>21.0</ele><time>2026-04-19T15:54:28Z</time></trkpt><trkpt lat="38.984998404606515" lon="8.62391106797794"><ele>21.0</ele><time>2026-04-19T15:54:33Z</time></trkpt><trkpt lat="38.9850426125625" lon="8.623990996783354"><ele>21.0</ele><time>2026-04-19T15:54:39Z</time></trkpt><trkpt lat="38.9850924071473" lon="8.624057428315679"><ele>21.0</ele><time>2026-04-19T15:54:45Z</time></trkpt><trkpt lat="38.98515074858229" lon="8.624118740635534"><ele>21.285714285714285</ele><time>2026-04-19T15:54:51Z</time></trkpt><trkpt lat="38.98519378578826" lon="8.624178097314783"><ele>21.57142857142857</ele><time>2026-04-19T15:54:56Z</time></trkpt><trkpt lat="38.985244990669216" lon="8.62424659637943"><ele>21.857142857142858</ele><time>2026-04-19T15:55:02Z</time></trkpt><trkpt lat="38.98530398642061" lon="8.62430268585504"><ele>22.142857142857142</ele><time>2026-04-19T15:55:08Z</time></trkpt><trkpt lat="38.98534726093119" lon="8.624361676198529"><ele>22.428571428571427</ele><time>2026-04-19T15:55:13Z</time></trkpt><trkpt lat="38.98539921224736" lon="8.62443111955866"><ele>22.714285714285715</ele><time>2026-04-19T15:55:19Z</time></trkpt><trkpt lat="38.9854521662039" lon="8.624492717763246"><ele>23.0</ele><time>2026-04-19T15:55:25Z</time></trkpt><trkpt lat="38.98550205688752" lon="8.624549136090689"><ele>23.0</ele><time>2026-04-19T15:55:30Z</time></trkpt><trkpt lat="38.98555291600365" lon="8.624608077562918"><ele>23.0</ele><time>2026-04-19T15:55:36Z</time></trkpt><trkpt lat="38.98560216001672" lon="8.624674285066318"><ele>23.0</ele><time>2026-04-19T15:55:42Z</time></trkpt><trkpt lat="38.98565524430179" lon="8.62474039616667"><ele>23.0</ele><time>2026-04-19T15:55:48Z</time></trkpt><trkpt lat="38.98570842950225" lon="8.624800371742705"><ele>23.0</ele><time>2026-04-19T15:55:54Z</time></trkpt><trkpt lat="38.985757882764815" lon="8.624869970011018"><ele>23.0</ele><time>2026-04-19T15:56:00Z</time></trkpt><trkpt lat="38.98581444724291" lon="8.624930342636334"><ele>23.0</ele><time>2026-04-19T15:56:06Z</time></trkpt><trkpt lat="38.98585715797588" lon="8.624993410449067"><ele>23.142857142857142</ele><time>2026-04-19T15:56:12Z</time></trkpt><trkpt lat="38.985907753401484" lon="8.625060086012132"><ele>23.285714285714285</ele><time>2026-04-19T15:56:18Z</time></trkpt><trkpt lat="38.985955685763294" lon="8.625127596683763"><ele>23.428571428571427</ele><time>2026-04-19T15:56:24Z</time></trkpt><trkpt lat="38.98600691925539" lon="8.625186518874429"><ele>23.57142857142857</ele><time>2026-04-19T15:56:30Z</time></trkpt><trkpt lat="38.98606530071238" lon="8.625240781410266"><ele>23.714285714285715</ele><time>2026-04-19T15:56:36Z</time></trkpt><trkpt lat="38.98611763535604" lon="8.625293871382553"><ele>23.857142857142854</ele><time>2026-04-19T15:56:41Z</time></trkpt><trkpt lat="38.98617823123643" lon="8.625337152385809"><ele>24.0</ele><time>2026-04-19T15:56:46Z</time></trkpt><trkpt lat="38.98622935373211" lon="8.625389865229776"><ele>23.999999999999996</ele><time>2026-04-19T15:56:51Z</time></trkpt><trkpt lat="38.98628144183087" lon="8.62545961185326"><ele>24.0</ele><time>2026-04-19T15:56:57Z</time></trkpt><trkpt lat="38.98632767114503" lon="8.625526708351696"><ele>24.0</ele><time>2026-04-19T15:57:02Z</time></trkpt><trkpt lat="38.986381226181514" lon="8.625591501244427"><ele>24.0</ele><time>2026-04-19T15:57:08Z</time></trkpt><trkpt lat="38.98642809271898" lon="8.62564605072118"><ele>24.0</ele><time>2026-04-19T15:57:13Z</time></trkpt><trkpt lat="38.986475910216704" lon="8.625704652226545"><ele>23.999999999999996</ele><time>2026-04-19T15:57:18Z</time></trkpt><trkpt lat="38.98652174849438" lon="8.625768921552037"><ele>24.0</ele><time>2026-04-19T15:57:24Z</time></trkpt><trkpt lat="38.986569960509655" lon="8.62582479545427"><ele>23.999999999999996</ele><time>2026-04-19T15:57:29Z</time></trkpt><trkpt lat="38.98662018170503" lon="8.625879632846948"><ele>24.0</ele><time>2026-04-19T15:57:34Z</time></trkpt><trkpt lat="38.98667303638299" lon="8.625940696919846"><ele>24.0</ele><time>2026-04-19T15:57:40Z</time></trkpt><trkpt lat="38.986721846980764" lon="8.626003388150108"><ele>24.0</ele><time>2026-04-19T15:57:46Z</time></trkpt><trkpt lat="38.986774611139964" lon="8.62606725566873"><ele>24.0</ele><time>2026-04-19T15:57:52Z</time></trkpt><trkpt lat="38.98682458907348" lon="8.626132550378351"><ele>23.999999999999996</ele><time>2026-04-19T15:57:58Z</time></trkpt><trkpt lat="38.98687039926363" lon="8.626201299052259"><ele>24.0</ele><time>2026-04-19T15:58:04Z</time></trkpt><trkpt lat="38.98692561461191" lon="8.626266442031735"><ele>24.142857142857142</ele><time>2026-04-19T15:58:10Z</time></trkpt><trkpt lat="38.986981596508045" lon="8.626328266869697"><ele>24.285714285714285</ele><time>2026-04-19T15:58:16Z</time></trkpt><trkpt lat="38.98702473942401" lon="8.626398412651803"><ele>24.42857142857143</ele><time>2026-04-19T15:58:22Z</time></trkpt><trkpt lat="38.98707358650384" lon="8.626451115941673"><ele>24.57142857142857</ele><time>2026-04-19T15:58:27Z</time></trkpt><trkpt lat="38.9871241679007" lon="8.62651664229611"><ele>24.714285714285715</ele><time>2026-04-19T15:58:33Z</time></trkpt><trkpt lat="38.98717895385273" lon="8.626581752821645"><ele>24.857142857142858</ele><time>2026-04-19T15:58:39Z</time></trkpt><trkpt lat="38.987226455745834" lon="8.62664808434865"><ele>25.0</ele><time>2026-04-19T15:58:45Z</time></trkpt><trkpt lat="38.987273496706905" lon="8.626709723386439"><ele>25.000000000000004</ele><time>2026-04-19T15:58:51Z</time></trkpt><trkpt lat="38.98732290666137" lon="8.626767731331093"><ele>25.0</ele><time>2026-04-19T15:58:56Z</time></trkpt><trkpt lat="38.98737247886412" lon="8.62683074561807"><ele>25.0</ele><time>2026-04-19T15:59:02Z</time></trkpt><trkpt lat="38.98742313075769" lon="8.626898416832192"><ele>25.0</ele><time>2026-04-19T15:59:08Z</time></trkpt><trkpt lat="38.98747859984222" lon="8.626956926547146"><ele>25.0</ele><time>2026-04-19T15:59:14Z</time></trkpt><trkpt lat="38.98752640449961" lon="8.627025008844623"><ele>25.000000000000004</ele><time>2026-04-19T15:59:20Z</time></trkpt><trkpt lat="38.98757513079823" lon="8.627088084375686"><ele>25.0</ele><time>2026-04-19T15:59:26Z</time></trkpt><trkpt lat="38.987625237997975" lon="8.62715259062855"><ele>25.714285714285715</ele><time>2026-04-19T15:59:32Z</time></trkpt><trkpt lat="38.98767098585401" lon="8.627220766550005"><ele>26.42857142857143</ele><time>2026-04-19T15:59:38Z</time></trkpt><trkpt lat="38.98772188412074" lon="8.627283590114873"><ele>27.142857142857146</ele><time>2026-04-19T15:59:44Z</time></trkpt><trkpt lat="38.98777285573764" lon="8.627348868419476"><ele>27.857142857142858</ele><time>2026-04-19T15:59:50Z</time></trkpt><trkpt lat="38.98782362629041" lon="8.627414640048519"><ele>28.57142857142857</ele><time>2026-04-19T15:59:56Z</time></trkpt><trkpt lat="38.987875389130565" lon="8.627477591541542"><ele>29.28571428571429</ele><time>2026-04-19T16:00:02Z</time></trkpt><trkpt lat="38.98792848721245" lon="8.627540756876883"><ele>30.0</ele><time>2026-04-19T16:00:08Z</time></trkpt><trkpt lat="38.9879773271151" lon="8.627603232031637"><ele>30.0</ele><time>2026-04-19T16:00:14Z</time></trkpt><trkpt lat="38.98803129167227" lon="8.627669722996805"><ele>30.0</ele><time>2026-04-19T16:00:20Z</time></trkpt><trkpt lat="38.98807831922858" lon="8.627727624517721"><ele>30.0</ele><time>2026-04-19T16:00:26Z</time></trkpt><trkpt lat="38.98812635382623" lon="8.62778552190433"><ele>30.0</ele><time>2026-04-19T16:00:31Z</time></trkpt><trkpt lat="38.988175681930024" lon="8.627850393249936"><ele>30.0</ele><time>2026-04-19T16:00:37Z</time></trkpt><trkpt lat="38.988225297297745" lon="8.627920709255053"><ele>30.0</ele><time>2026-04-19T16:00:43Z</time></trkpt><trkpt lat="38.98827833722719" lon="8.62797702173231"><ele>30.0</ele><time>2026-04-19T16:00:49Z</time></trkpt><trkpt lat="38.98833583506977" lon="8.628018276787175"><ele>30.0</ele><time>2026-04-19T16:00:55Z</time></trkpt><trkpt lat="38.98838034290403" lon="8.628078620211387"><ele>30.0</ele><time>2026-04-19T16:01:00Z</time></trkpt><trkpt lat="38.9884241438749" lon="8.628156194535354"><ele>30.0</ele><time>2026-04-19T16:01:06Z</time></trkpt><trkpt lat="38.98847513949844" lon="8.628222002714352"><ele>30.0</ele><time>2026-04-19T16:01:12Z</time></trkpt><trkpt lat="38.98852211561027" lon="8.628283841092431"><ele>30.0</ele><time>2026-04-19T16:01:18Z</time></trkpt><trkpt lat="38.988567290964355" lon="8.628347541923635"><ele>30.0</ele><time>2026-04-19T16:01:24Z</time></trkpt><trkpt lat="38.98862121157315" lon="8.62841076308063"><ele>30.0</ele><time>2026-04-19T16:01:30Z</time></trkpt><trkpt lat="38.988664916054404" lon="8.628470208726299"><ele>30.0</ele><time>2026-04-19T16:01:36Z</time></trkpt><trkpt lat="38.98871273376376" lon="8.628524175002402"><ele>30.0</ele><time>2026-04-19T16:01:41Z</time></trkpt><trkpt lat="38.988760453238314" lon="8.628590631388851"><ele>30.0</ele><time>2026-04-19T16:01:47Z</time></trkpt><trkpt lat="38.988808353595786" lon="8.628655663787724"><ele>30.0</ele><time>2026-04-19T16:01:53Z</time></trkpt><trkpt lat="38.98885738220822" lon="8.628720031558816"><ele>30.0</ele><time>2026-04-19T16:01:59Z</time></trkpt><trkpt lat="38.988908191388695" lon="8.628784912737714"><ele>30.0</ele><time>2026-04-19T16:02:05Z</time></trkpt><trkpt lat="38.98896461667624" lon="8.62885192259174"><ele>30.0</ele><time>2026-04-19T16:02:11Z</time></trkpt><trkpt lat="38.98901254073431" lon="8.628913653704775"><ele>30.285714285714285</ele><time>2026-04-19T16:02:17Z</time></trkpt><trkpt lat="38.98906619844691" lon="8.628971246369456"><ele>30.57142857142857</ele><time>2026-04-19T16:02:23Z</time></trkpt><trkpt lat="38.98912133055984" lon="8.62903143436025"><ele>30.857142857142854</ele><time>2026-04-19T16:02:29Z</time></trkpt><trkpt lat="38.989166713922614" lon="8.629099774286207"><ele>31.142857142857142</ele><time>2026-04-19T16:02:35Z</time></trkpt><trkpt lat="38.98921912319859" lon="8.629163783178575"><ele>31.428571428571423</ele><time>2026-04-19T16:02:41Z</time></trkpt><trkpt lat="38.989268770272055" lon="8.629221340721402"><ele>31.71428571428571</ele><time>2026-04-19T16:02:47Z</time></trkpt><trkpt lat="38.989314016562375" lon="8.629283786505843"><ele>32.0</ele><time>2026-04-19T16:02:53Z</time></trkpt><trkpt lat="38.989366777077244" lon="8.629345764207413"><ele>32.285714285714285</ele><time>2026-04-19T16:02:59Z</time></trkpt><trkpt lat="38.989415193090416" lon="8.629407976268862"><ele>32.57142857142857</ele><time>2026-04-19T16:03:05Z</time></trkpt><trkpt lat="38.98946425251605" lon="8.629471647824687"><ele>32.857142857142854</ele><time>2026-04-19T16:03:11Z</time></trkpt><trkpt lat="38.989519182749966" lon="8.62952866032142"><ele>33.14285714285714</ele><time>2026-04-19T16:03:17Z</time></trkpt><trkpt lat="38.98956228211129" lon="8.62959085380435"><ele>33.42857142857143</ele><time>2026-04-19T16:03:23Z</time></trkpt><trkpt lat="38.98961125010878" lon="8.6296462634604"><ele>33.71428571428571</ele><time>2026-04-19T16:03:28Z</time></trkpt><trkpt lat="38.989661478770756" lon="8.629704131618114"><ele>34.0</ele><time>2026-04-19T16:03:34Z</time></trkpt><trkpt lat="38.98971186386844" lon="8.629766556155596"><ele>33.99999999999999</ele><time>2026-04-19T16:03:40Z</time></trkpt><trkpt lat="38.98977072216934" lon="8.629822814554066"><ele>34.0</ele><time>2026-04-19T16:03:46Z</time></trkpt><trkpt lat="38.98982569135309" lon="8.629873744217162"><ele>34.0</ele><time>2026-04-19T16:03:52Z</time></trkpt><trkpt lat="38.98988349336265" lon="8.629931117010411"><ele>34.0</ele><time>2026-04-19T16:03:58Z</time></trkpt><trkpt lat="38.98993162135059" lon="8.629996929350378"><ele>34.0</ele><time>2026-04-19T16:04:04Z</time></trkpt><trkpt lat="38.98996394604001" lon="8.63008262277712"><ele>33.99999999999999</ele><time>2026-04-19T16:04:10Z</time></trkpt><trkpt lat="38.99001120650229" lon="8.630145320611936"><ele>34.0</ele><time>2026-04-19T16:04:16Z</time></trkpt><trkpt lat="38.99005346151715" lon="8.63021689437033"><ele>33.99999999999999</ele><time>2026-04-19T16:04:22Z</time></trkpt><trkpt lat="38.99011666882892" lon="8.630268920828264"><ele>34.0</ele><time>2026-04-19T16:04:28Z</time></trkpt><trkpt lat="38.990166096520824" lon="8.630328862780628"><ele>34.0</ele><time>2026-04-19T16:04:34Z</time></trkpt><trkpt lat="38.99021928914781" lon="8.63038827699034"><ele>34.0</ele><time>2026-04-19T16:04:40Z</time></trkpt><trkpt lat="38.990267773474855" lon="8.6304479569106"><ele>34.0</ele><time>2026-04-19T16:04:46Z</time></trkpt><trkpt lat="38.99031383675782" lon="8.630509749021549"><ele>33.99999999999999</ele><time>2026-04-19T16:04:52Z</time></trkpt><trkpt lat="38.99036212969332" lon="8.63056569292632"><ele>34.0</ele><time>2026-04-19T16:04:58Z</time></trkpt><trkpt lat="38.99041613211752" lon="8.630629753180106"><ele>33.99999999999999</ele><time>2026-04-19T16:05:04Z</time></trkpt><trkpt lat="38.99046009880394" lon="8.630699945221894"><ele>34.0</ele><time>2026-04-19T16:05:10Z</time></trkpt><trkpt lat="38.99051440628968" lon="8.630759635292284"><ele>34.0</ele><time>2026-04-19T16:05:16Z</time></trkpt><trkpt lat="38.99056440282017" lon="8.630819125079752"><ele>34.0</ele><time>2026-04-19T16:05:22Z</time></trkpt><trkpt lat="38.99061278888755" lon="8.630882763030204"><ele>34.0</ele><time>2026-04-19T16:05:28Z</time></trkpt><trkpt lat="38.99066751179121" lon="8.630948240921583"><ele>33.99999999999999</ele><time>2026-04-19T16:05:35Z</time></trkpt><trkpt lat="38.99071463885459" lon="8.631011702007584"><ele>34.0</ele><time>2026-04-19T16:05:41Z</time></trkpt><trkpt lat="38.99076017409065" lon="8.631079806879729"><ele>33.99999999999999</ele><time>2026-04-19T16:05:47Z</time></trkpt><trkpt lat="38.990812431644834" lon="8.631135519168806"><ele>34.0</ele><time>2026-04-19T16:05:53Z</time></trkpt><trkpt lat="38.99086049816166" lon="8.631198052570582"><ele>34.0</ele><time>2026-04-19T16:05:59Z</time></trkpt><trkpt lat="38.99091824712227" lon="8.631256062921684"><ele>34.0</ele><time>2026-04-19T16:06:05Z</time></trkpt><trkpt lat="38.99096846797352" lon="8.63131991790642"><ele>34.0</ele><time>2026-04-19T16:06:11Z</time></trkpt><trkpt lat="38.99101238584148" lon="8.63138449946915"><ele>33.99999999999999</ele><time>2026-04-19T16:06:17Z</time></trkpt><trkpt lat="38.99105931153561" lon="8.631440940829123"><ele>34.0</ele><time>2026-04-19T16:06:23Z</time></trkpt><trkpt lat="38.991105364074826" lon="8.631501932656873"><ele>34.285714285714285</ele><time>2026-04-19T16:06:29Z</time></trkpt><trkpt lat="38.991152440479766" lon="8.63156233372032"><ele>34.57142857142857</ele><time>2026-04-19T16:06:35Z</time></trkpt><trkpt lat="38.991201547338264" lon="8.631618894770002"><ele>34.85714285714286</ele><time>2026-04-19T16:06:41Z</time></trkpt><trkpt lat="38.99124627403335" lon="8.631681110959107"><ele>35.14285714285714</ele><time>2026-04-19T16:06:47Z</time></trkpt><trkpt lat="38.9912955795536" lon="8.631738021897831"><ele>35.42857142857143</ele><time>2026-04-19T16:06:53Z</time></trkpt><trkpt lat="38.99134957348864" lon="8.631798300861089"><ele>35.714285714285715</ele><time>2026-04-19T16:06:59Z</time></trkpt><trkpt lat="38.99139512386818" lon="8.63186358327175"><ele>36.0</ele><time>2026-04-19T16:07:05Z</time></trkpt><trkpt lat="38.99144521998606" lon="8.631922627260758"><ele>36.00000000000001</ele><time>2026-04-19T16:07:11Z</time></trkpt><trkpt lat="38.99149521282095" lon="8.631987314818474"><ele>36.0</ele><time>2026-04-19T16:07:17Z</time></trkpt><trkpt lat="38.99154646789788" lon="8.632049036283583"><ele>36.0</ele><time>2026-04-19T16:07:23Z</time></trkpt><trkpt lat="38.99159635106975" lon="8.6321105879678"><ele>36.0</ele><time>2026-04-19T16:07:29Z</time></trkpt><trkpt lat="38.99164701508291" lon="8.63217552309061"><ele>36.0</ele><time>2026-04-19T16:07:35Z</time></trkpt><trkpt lat="38.99169459005795" lon="8.63223665186961"><ele>36.00000000000001</ele><time>2026-04-19T16:07:41Z</time></trkpt><trkpt lat="38.991749073605995" lon="8.632296933654498"><ele>36.0</ele><time>2026-04-19T16:07:47Z</time></trkpt><trkpt lat="38.99179740128846" lon="8.632359175405936"><ele>36.42857142857143</ele><time>2026-04-19T16:07:53Z</time></trkpt><trkpt lat="38.991842916260204" lon="8.632417140944087"><ele>36.85714285714286</ele><time>2026-04-19T16:07:59Z</time></trkpt><trkpt lat="38.99188796529719" lon="8.632481886908268"><ele>37.28571428571429</ele><time>2026-04-19T16:08:06Z</time></trkpt><trkpt lat="38.99194310895999" lon="8.632544493433585"><ele>37.714285714285715</ele><time>2026-04-19T16:08:12Z</time></trkpt><trkpt lat="38.99199450832787" lon="8.6326098913362"><ele>38.14285714285714</ele><time>2026-04-19T16:08:18Z</time></trkpt><trkpt lat="38.992040275973594" lon="8.632673212010666"><ele>38.57142857142858</ele><time>2026-04-19T16:08:24Z</time></trkpt><trkpt lat="38.99209028592989" lon="8.632740290341976"><ele>39.0</ele><time>2026-04-19T16:08:30Z</time></trkpt><trkpt lat="38.99213697290165" lon="8.632798584999183"><ele>39.142857142857146</ele><time>2026-04-19T16:08:35Z</time></trkpt><trkpt lat="38.99218133209097" lon="8.632859080404302"><ele>39.285714285714285</ele><time>2026-04-19T16:08:41Z</time></trkpt><trkpt lat="38.99222428575955" lon="8.632919707426412"><ele>39.42857142857143</ele><time>2026-04-19T16:08:46Z</time></trkpt><trkpt lat="38.9922750196324" lon="8.632985766831853"><ele>39.57142857142857</ele><time>2026-04-19T16:08:52Z</time></trkpt><trkpt lat="38.99231880609271" lon="8.633046553709994"><ele>39.714285714285715</ele><time>2026-04-19T16:08:57Z</time></trkpt><trkpt lat="38.99236721114905" lon="8.63310242918284"><ele>39.857142857142854</ele><time>2026-04-19T16:09:02Z</time></trkpt><trkpt lat="38.99241902123379" lon="8.633160465806355"><ele>40.0</ele><time>2026-04-19T16:09:08Z</time></trkpt><trkpt lat="38.99247023932212" lon="8.633220369661764"><ele>40.0</ele><time>2026-04-19T16:09:14Z</time></trkpt><trkpt lat="38.99250919788942" lon="8.63328813121025"><ele>40.0</ele><time>2026-04-19T16:09:19Z</time></trkpt><trkpt lat="38.992566203007584" lon="8.633350866291076"><ele>40.0</ele><time>2026-04-19T16:09:25Z</time></trkpt><trkpt lat="38.99262340537711" lon="8.633411708444388"><ele>40.0</ele><time>2026-04-19T16:09:31Z</time></trkpt><trkpt lat="38.99267170384543" lon="8.633481912700256"><ele>40.0</ele><time>2026-04-19T16:09:37.001Z</time></trkpt><trkpt lat="38.99271627987596" lon="8.63354232592849"><ele>40.0</ele><time>2026-04-19T16:09:42Z</time></trkpt><trkpt lat="38.99277057931707" lon="8.633603899604628"><ele>40.0</ele><time>2026-04-19T16:09:48Z</time></trkpt><trkpt lat="38.99282721306856" lon="8.63367598614294"><ele>40.14285714285714</ele><time>2026-04-19T16:09:54Z</time></trkpt><trkpt lat="38.99287805922425" lon="8.633742585419398"><ele>40.285714285714285</ele><time>2026-04-19T16:10:00Z</time></trkpt><trkpt lat="38.992930294434046" lon="8.63380560475321"><ele>40.42857142857143</ele><time>2026-04-19T16:10:06Z</time></trkpt><trkpt lat="38.99298283003548" lon="8.63385844261682"><ele>40.57142857142857</ele><time>2026-04-19T16:10:11Z</time></trkpt><trkpt lat="38.9930370722547" lon="8.633925194056523"><ele>40.714285714285715</ele><time>2026-04-19T16:10:17Z</time></trkpt><trkpt lat="38.99308678467776" lon="8.633994683828567"><ele>40.857142857142854</ele><time>2026-04-19T16:10:23Z</time></trkpt><trkpt lat="38.993137731583985" lon="8.634062754938524"><ele>41.0</ele><time>2026-04-19T16:10:29Z</time></trkpt><trkpt lat="38.993184528427804" lon="8.63411957406021"><ele>40.99999999999999</ele><time>2026-04-19T16:10:34Z</time></trkpt><trkpt lat="38.99323622975481" lon="8.634176941291846"><ele>41.0</ele><time>2026-04-19T16:10:39Z</time></trkpt><trkpt lat="38.993289296359414" lon="8.634245022531946"><ele>41.0</ele><time>2026-04-19T16:10:45Z</time></trkpt><trkpt lat="38.99333263729067" lon="8.634305251812185"><ele>41.0</ele><time>2026-04-19T16:10:50Z</time></trkpt><trkpt lat="38.99338907376265" lon="8.634364076316139"><ele>41.0</ele><time>2026-04-19T16:10:56Z</time></trkpt><trkpt lat="38.99343687095071" lon="8.634432120404133"><ele>40.99999999999999</ele><time>2026-04-19T16:11:02Z</time></trkpt><trkpt lat="38.99348588730688" lon="8.634492206732755"><ele>41.0</ele><time>2026-04-19T16:11:07Z</time></trkpt><trkpt lat="38.993528757963816" lon="8.634551831964433"><ele>41.285714285714285</ele><time>2026-04-19T16:11:12Z</time></trkpt><trkpt lat="38.99358087887276" lon="8.634616858246812"><ele>41.57142857142857</ele><time>2026-04-19T16:11:18Z</time></trkpt><trkpt lat="38.99363375036346" lon="8.634681905908705"><ele>41.85714285714286</ele><time>2026-04-19T16:11:24.001Z</time></trkpt><trkpt lat="38.99368650461544" lon="8.634741045435664"><ele>42.14285714285714</ele><time>2026-04-19T16:11:30.001Z</time></trkpt><trkpt lat="38.99372842537117" lon="8.634802804771073"><ele>42.42857142857143</ele><time>2026-04-19T16:11:35.001Z</time></trkpt><trkpt lat="38.993772447475315" lon="8.634860782737615"><ele>42.714285714285715</ele><time>2026-04-19T16:11:40.001Z</time></trkpt><trkpt lat="38.9938260379032" lon="8.63492515218955"><ele>43.0</ele><time>2026-04-19T16:11:46Z</time></trkpt><trkpt lat="38.99388381904295" lon="8.63499224159929"><ele>43.00000000000001</ele><time>2026-04-19T16:11:52Z</time></trkpt><trkpt lat="38.99394350053207" lon="8.635052761077043"><ele>43.0</ele><time>2026-04-19T16:11:58Z</time></trkpt><trkpt lat="38.9939917439393" lon="8.63511102048883"><ele>43.0</ele><time>2026-04-19T16:12:03Z</time></trkpt><trkpt lat="38.994047803591044" lon="8.635169824418186"><ele>43.0</ele><time>2026-04-19T16:12:09Z</time></trkpt><trkpt lat="38.99409807104349" lon="8.635226017028039"><ele>43.0</ele><time>2026-04-19T16:12:14Z</time></trkpt><trkpt lat="38.99414772010742" lon="8.635299880367814"><ele>43.00000000000001</ele><time>2026-04-19T16:12:20Z</time></trkpt><trkpt lat="38.99420370509344" lon="8.635357154496964"><ele>43.0</ele><time>2026-04-19T16:12:26Z</time></trkpt><trkpt lat="38.994248026291984" lon="8.635424498825389"><ele>43.42857142857143</ele><time>2026-04-19T16:12:31Z</time></trkpt><trkpt lat="38.99429823490474" lon="8.63549460973895"><ele>43.85714285714286</ele><time>2026-04-19T16:12:37Z</time></trkpt><trkpt lat="38.99434344131899" lon="8.635566449252034"><ele>44.28571428571429</ele><time>2026-04-19T16:12:43Z</time></trkpt><trkpt lat="38.994406035375576" lon="8.635620235388707"><ele>44.714285714285715</ele><time>2026-04-19T16:12:49Z</time></trkpt><trkpt lat="38.994447290009084" lon="8.635693200229628"><ele>45.14285714285714</ele><time>2026-04-19T16:12:55Z</time></trkpt><trkpt lat="38.99448374183614" lon="8.635777901914528"><ele>45.57142857142858</ele><time>2026-04-19T16:13:01Z</time></trkpt><trkpt lat="38.99453176230527" lon="8.635836560494482"><ele>46.0</ele><time>2026-04-19T16:13:06Z</time></trkpt><trkpt lat="38.99458372872754" lon="8.635901721675024"><ele>46.0</ele><time>2026-04-19T16:13:12.001Z</time></trkpt><trkpt lat="38.99463606735794" lon="8.63594882040914"><ele>46.0</ele><time>2026-04-19T16:13:17.001Z</time></trkpt><trkpt lat="38.99467455887092" lon="8.63601396935352"><ele>46.0</ele><time>2026-04-19T16:13:22.001Z</time></trkpt><trkpt lat="38.99471871417598" lon="8.63607208597892"><ele>46.0</ele><time>2026-04-19T16:13:27.001Z</time></trkpt><trkpt lat="38.99476894092928" lon="8.636128166070897"><ele>46.0</ele><time>2026-04-19T16:13:32.001Z</time></trkpt><trkpt lat="38.99481786133728" lon="8.636182329841178"><ele>46.0</ele><time>2026-04-19T16:13:37.001Z</time></trkpt><trkpt lat="38.99486853104139" lon="8.636249908377263"><ele>46.0</ele><time>2026-04-19T16:13:43.001Z</time></trkpt><trkpt lat="38.99491633257987" lon="8.636306159920982"><ele>46.142857142857146</ele><time>2026-04-19T16:13:48.001Z</time></trkpt><trkpt lat="38.9949702098687" lon="8.63636503838336"><ele>46.285714285714285</ele><time>2026-04-19T16:13:54Z</time></trkpt><trkpt lat="38.995020126928296" lon="8.636427798295495"><ele>46.42857142857143</ele><time>2026-04-19T16:14:00Z</time></trkpt><trkpt lat="38.9950727498597" lon="8.636493580716875"><ele>46.57142857142857</ele><time>2026-04-19T16:14:06Z</time></trkpt><trkpt lat="38.99512015178317" lon="8.636559391269742"><ele>46.71428571428571</ele><time>2026-04-19T16:14:12Z</time></trkpt><trkpt lat="38.99517038874663" lon="8.636623357675875"><ele>46.857142857142854</ele><time>2026-04-19T16:14:18Z</time></trkpt><trkpt lat="38.99522510328112" lon="8.636697265323415"><ele>47.0</ele><time>2026-04-19T16:14:24Z</time></trkpt><trkpt lat="38.99527373074447" lon="8.63675222384073"><ele>47.0</ele><time>2026-04-19T16:14:30Z</time></trkpt><trkpt lat="38.995327668350676" lon="8.636805967335883"><ele>47.0</ele><time>2026-04-19T16:14:36Z</time></trkpt><trkpt lat="38.9953777062784" lon="8.636867010220284"><ele>47.0</ele><time>2026-04-19T16:14:42Z</time></trkpt><trkpt lat="38.99542683654767" lon="8.636921401680697"><ele>47.0</ele><time>2026-04-19T16:14:48Z</time></trkpt><trkpt lat="38.99546673402817" lon="8.636997008306432"><ele>47.0</ele><time>2026-04-19T16:14:54Z</time></trkpt><trkpt lat="38.9955237090494" lon="8.637057592383357"><ele>47.0</ele><time>2026-04-19T16:15:00Z</time></trkpt><trkpt lat="38.99557012321803" lon="8.637112828816605"><ele>47.0</ele><time>2026-04-19T16:15:06Z</time></trkpt><trkpt lat="38.99562248761816" lon="8.637174050252007"><ele>47.14285714285714</ele><time>2026-04-19T16:15:12Z</time></trkpt><trkpt lat="38.995677517727145" lon="8.63723116087666"><ele>47.285714285714285</ele><time>2026-04-19T16:15:18Z</time></trkpt><trkpt lat="38.99572358708844" lon="8.637288410343576"><ele>47.42857142857143</ele><time>2026-04-19T16:15:23Z</time></trkpt><trkpt lat="38.995765030490716" lon="8.63736187430512"><ele>47.57142857142857</ele><time>2026-04-19T16:15:29Z</time></trkpt><trkpt lat="38.99581055406878" lon="8.637426815468256"><ele>47.714285714285715</ele><time>2026-04-19T16:15:35.001Z</time></trkpt><trkpt lat="38.99586769737154" lon="8.637473703953187"><ele>47.857142857142854</ele><time>2026-04-19T16:15:41.001Z</time></trkpt><trkpt lat="38.99591700305106" lon="8.637525130005406"><ele>48.0</ele><time>2026-04-19T16:15:47.001Z</time></trkpt><trkpt lat="38.99596400446321" lon="8.637589164261001"><ele>48.14285714285714</ele><time>2026-04-19T16:15:53.001Z</time></trkpt><trkpt lat="38.99600725104476" lon="8.637656737086864"><ele>48.285714285714285</ele><time>2026-04-19T16:15:59Z</time></trkpt><trkpt lat="38.99606034728181" lon="8.637722786109274"><ele>48.42857142857143</ele><time>2026-04-19T16:16:05Z</time></trkpt><trkpt lat="38.99609866824653" lon="8.63779189530922"><ele>48.57142857142857</ele><time>2026-04-19T16:16:11Z</time></trkpt><trkpt lat="38.99615166807387" lon="8.637837331480107"><ele>48.714285714285715</ele><time>2026-04-19T16:16:16Z</time></trkpt><trkpt lat="38.99620582648592" lon="8.637892211516723"><ele>48.857142857142854</ele><time>2026-04-19T16:16:22Z</time></trkpt><trkpt lat="38.99625853915023" lon="8.637954103159533"><ele>49.0</ele><time>2026-04-19T16:16:28Z</time></trkpt><trkpt lat="38.99630663134176" lon="8.63801870286399"><ele>49.142857142857146</ele><time>2026-04-19T16:16:34Z</time></trkpt><trkpt lat="38.99635374689896" lon="8.638086877139273"><ele>49.285714285714285</ele><time>2026-04-19T16:16:40Z</time></trkpt><trkpt lat="38.99640688443864" lon="8.638140619804135"><ele>49.42857142857143</ele><time>2026-04-19T16:16:46Z</time></trkpt><trkpt lat="38.996462934643525" lon="8.638194569152507"><ele>49.57142857142857</ele><time>2026-04-19T16:16:51Z</time></trkpt><trkpt lat="38.9965175100305" lon="8.63825156589635"><ele>49.714285714285715</ele><time>2026-04-19T16:16:57Z</time></trkpt><trkpt lat="38.99656525344658" lon="8.638307802182768"><ele>49.85714285714286</ele><time>2026-04-19T16:17:02Z</time></trkpt><trkpt lat="38.99661770585197" lon="8.638370841475101"><ele>50.0</ele><time>2026-04-19T16:17:08Z</time></trkpt><trkpt lat="38.996667766510456" lon="8.63843936476359"><ele>50.00000000000001</ele><time>2026-04-19T16:17:14Z</time></trkpt><trkpt lat="38.99671774443674" lon="8.638501242923727"><ele>50.0</ele><time>2026-04-19T16:17:20Z</time></trkpt><trkpt lat="38.996765161273345" lon="8.638568719273241"><ele>50.0</ele><time>2026-04-19T16:17:26Z</time></trkpt><trkpt lat="38.9968139518731" lon="8.638629011052819"><ele>50.0</ele><time>2026-04-19T16:17:32Z</time></trkpt><trkpt lat="38.9968652720675" lon="8.638693239846962"><ele>50.0</ele><time>2026-04-19T16:17:38Z</time></trkpt><trkpt lat="38.99691527197923" lon="8.638750934363443"><ele>50.00000000000001</ele><time>2026-04-19T16:17:43Z</time></trkpt><trkpt lat="38.99696506663578" lon="8.63881525668563"><ele>50.0</ele><time>2026-04-19T16:17:49Z</time></trkpt><trkpt lat="38.997014499158055" lon="8.638879198631695"><ele>50.00000000000001</ele><time>2026-04-19T16:17:55Z</time></trkpt><trkpt lat="38.99706555880963" lon="8.63893537854348"><ele>50.0</ele><time>2026-04-19T16:18:01Z</time></trkpt><trkpt lat="38.997116304822676" lon="8.638993587343208"><ele>50.0</ele><time>2026-04-19T16:18:07Z</time></trkpt><trkpt lat="38.99718163726262" lon="8.639030493789214"><ele>50.0</ele><time>2026-04-19T16:18:13Z</time></trkpt><trkpt lat="38.99724854114043" lon="8.63901891293993"><ele>50.0</ele><time>2026-04-19T16:18:19Z</time></trkpt><trkpt lat="38.997318277778604" lon="8.638985746663614"><ele>50.00000000000001</ele><time>2026-04-19T16:18:26Z</time></trkpt><trkpt lat="38.997381915379655" lon="8.638971764843161"><ele>50.0</ele><time>2026-04-19T16:18:31Z</time></trkpt><trkpt lat="38.997453143241955" lon="8.638985906829221"><ele>50.28571428571429</ele><time>2026-04-19T16:18:37Z</time></trkpt><trkpt lat="38.99751007079013" lon="8.639040021334194"><ele>50.57142857142857</ele><time>2026-04-19T16:18:43Z</time></trkpt><trkpt lat="38.997547214132965" lon="8.639114454299085"><ele>50.85714285714286</ele><time>2026-04-19T16:18:49Z</time></trkpt><trkpt lat="38.99759722505651" lon="8.63917547325072"><ele>51.142857142857146</ele><time>2026-04-19T16:18:55Z</time></trkpt><trkpt lat="38.99759511211509" lon="8.639260880099277"><ele>51.42857142857143</ele><time>2026-04-19T16:19:04Z</time></trkpt><trkpt lat="38.99758362455595" lon="8.639344179313941"><ele>51.714285714285715</ele><time>2026-04-19T16:19:10Z</time></trkpt><trkpt lat="38.9975564048504" lon="8.639429535247274"><ele>52.0</ele><time>2026-04-19T16:19:15Z</time></trkpt><trkpt lat="38.99755450215207" lon="8.639523697769393"><ele>52.285714285714285</ele><time>2026-04-19T16:19:21Z</time></trkpt><trkpt lat="38.99756638726636" lon="8.639607594977372"><ele>52.57142857142858</ele><time>2026-04-19T16:19:27Z</time></trkpt><trkpt lat="38.99760989546009" lon="8.639668830619312"><ele>52.85714285714286</ele><time>2026-04-19T16:19:32Z</time></trkpt><trkpt lat="38.99765976787003" lon="8.639721494986418"><ele>53.14285714285714</ele><time>2026-04-19T16:19:38Z</time></trkpt><trkpt lat="38.99771009739324" lon="8.639778830620553"><ele>53.42857142857143</ele><time>2026-04-19T16:19:44Z</time></trkpt><trkpt lat="38.99775952934745" lon="8.639844130698645"><ele>53.714285714285715</ele><time>2026-04-19T16:19:50Z</time></trkpt><trkpt lat="38.99780756239515" lon="8.639900406634029"><ele>54.0</ele><time>2026-04-19T16:19:55Z</time></trkpt><trkpt lat="38.99786254193095" lon="8.639961620700978"><ele>54.0</ele><time>2026-04-19T16:20:01Z</time></trkpt><trkpt lat="38.99791356991723" lon="8.640032230762825"><ele>54.0</ele><time>2026-04-19T16:20:07Z</time></trkpt><trkpt lat="38.9979652404552" lon="8.640090719253608"><ele>54.0</ele><time>2026-04-19T16:20:13Z</time></trkpt><trkpt lat="38.99801352109871" lon="8.640156647955335"><ele>54.0</ele><time>2026-04-19T16:20:19Z</time></trkpt><trkpt lat="38.99806859228468" lon="8.640224781970543"><ele>54.0</ele><time>2026-04-19T16:20:25Z</time></trkpt><trkpt lat="38.99812478283351" lon="8.640290027932018"><ele>54.0</ele><time>2026-04-19T16:20:31Z</time></trkpt><trkpt lat="38.99818632510216" lon="8.640348356896396"><ele>54.0</ele><time>2026-04-19T16:20:37Z</time></trkpt><trkpt lat="38.99822664318939" lon="8.640414293465344"><ele>53.857142857142854</ele><time>2026-04-19T16:20:42Z</time></trkpt><trkpt lat="38.99827175138062" lon="8.640471166424227"><ele>53.71428571428571</ele><time>2026-04-19T16:20:47Z</time></trkpt><trkpt lat="38.99831196314642" lon="8.640540066312413"><ele>53.57142857142857</ele><time>2026-04-19T16:20:53Z</time></trkpt><trkpt lat="38.998359455996955" lon="8.640597046901332"><ele>53.42857142857143</ele><time>2026-04-19T16:20:58Z</time></trkpt><trkpt lat="38.99840051852583" lon="8.64066415213304"><ele>53.285714285714285</ele><time>2026-04-19T16:21:04Z</time></trkpt><trkpt lat="38.998447318201265" lon="8.640727128673166"><ele>53.142857142857146</ele><time>2026-04-19T16:21:09Z</time></trkpt><trkpt lat="38.998495937405785" lon="8.64078028216973"><ele>53.0</ele><time>2026-04-19T16:21:14Z</time></trkpt><trkpt lat="38.99854530867937" lon="8.640843630571002"><ele>53.42857142857143</ele><time>2026-04-19T16:21:19Z</time></trkpt><trkpt lat="38.99859179116712" lon="8.640903201903042"><ele>53.857142857142854</ele><time>2026-04-19T16:21:24Z</time></trkpt><trkpt lat="38.998643522458146" lon="8.640963995117747"><ele>54.285714285714285</ele><time>2026-04-19T16:21:29Z</time></trkpt><trkpt lat="38.99868780975702" lon="8.64102724946641"><ele>54.714285714285715</ele><time>2026-04-19T16:21:34Z</time></trkpt><trkpt lat="38.99873566735342" lon="8.641084577344484"><ele>55.14285714285714</ele><time>2026-04-19T16:21:39Z</time></trkpt><trkpt lat="38.998789576372104" lon="8.64115906586608"><ele>55.57142857142857</ele><time>2026-04-19T16:21:45Z</time></trkpt><trkpt lat="38.99884348091353" lon="8.641219987382922"><ele>56.0</ele><time>2026-04-19T16:21:51Z</time></trkpt><trkpt lat="38.99888862458745" lon="8.641287068166497"><ele>56.14285714285714</ele><time>2026-04-19T16:21:56Z</time></trkpt><trkpt lat="38.99894501869009" lon="8.641342314967938"><ele>56.285714285714285</ele><time>2026-04-19T16:22:02Z</time></trkpt><trkpt lat="38.99899774600179" lon="8.641404319679761"><ele>56.42857142857143</ele><time>2026-04-19T16:22:08Z</time></trkpt><trkpt lat="38.99904920071921" lon="8.641472666229706"><ele>56.57142857142857</ele><time>2026-04-19T16:22:14Z</time></trkpt><trkpt lat="38.99909905825281" lon="8.641538528291738"><ele>56.71428571428571</ele><time>2026-04-19T16:22:20Z</time></trkpt><trkpt lat="38.99914898086378" lon="8.641594824132184"><ele>56.857142857142854</ele><time>2026-04-19T16:22:26Z</time></trkpt><trkpt lat="38.999191642275626" lon="8.641659840621884"><ele>57.0</ele><time>2026-04-19T16:22:31Z</time></trkpt><trkpt lat="38.999237280224435" lon="8.641730442587818"><ele>57.14285714285714</ele><time>2026-04-19T16:22:37Z</time></trkpt><trkpt lat="38.99929702955957" lon="8.641774716998675"><ele>57.28571428571428</ele><time>2026-04-19T16:22:42Z</time></trkpt><trkpt lat="38.99935888132157" lon="8.641798941630872"><ele>57.42857142857143</ele><time>2026-04-19T16:22:47Z</time></trkpt><trkpt lat="38.99942136237479" lon="8.641758763182724"><ele>57.57142857142857</ele><time>2026-04-19T16:22:59Z</time></trkpt><trkpt lat="38.99945488160115" lon="8.64168664436328"><ele>57.714285714285715</ele><time>2026-04-19T16:23:05Z</time></trkpt><trkpt lat="38.99943036245345" lon="8.641605976685527"><ele>57.85714285714286</ele><time>2026-04-19T16:23:12Z</time></trkpt><trkpt lat="38.99941753947028" lon="8.641725644834986"><ele>58.00000000000001</ele><time>2026-04-19T16:23:43Z</time></trkpt><trkpt lat="38.999355236903256" lon="8.641737267034047"><ele>58.0</ele><time>2026-04-19T16:23:53Z</time></trkpt><trkpt lat="38.999393532432194" lon="8.641577011191398"><ele>58.0</ele><time>2026-04-19T16:24:17Z</time></trkpt><trkpt lat="38.99935895163079" lon="8.641691042815864"><ele>58.0</ele><time>2026-04-19T16:24:23Z</time></trkpt><trkpt lat="38.99939699575876" lon="8.641756230172886"><ele>58.0</ele><time>2026-04-19T16:24:29Z</time></trkpt><trkpt lat="38.99944096277244" lon="8.6416829529245"><ele>58.0</ele><time>2026-04-19T16:24:35Z</time></trkpt><trkpt lat="38.99937262266561" lon="8.641696558980012"><ele>58.0</ele><time>2026-04-19T16:25:32Z</time></trkpt></trkseg></trk></gpx>